createdAt,value
2019-05-12T00:01:10.840Z,1.65
2019-05-12T00:03:38.453Z,1.25
2019-05-12T00:06:08.633Z,1.37
2019-05-12T00:08:35.300Z,3.70
2019-05-12T00:11:02.892Z,1.72
2019-05-12T00:13:30.484Z,1.50
2019-05-12T00:15:58.415Z,1.17
2019-05-12T00:18:28.326Z,1.30
2019-05-12T00:20:57.795Z,1.10
2019-05-12T00:23:27.997Z,1.20
2019-05-12T00:25:54.023Z,1.02
2019-05-12T00:28:21.612Z,1.15
2019-05-12T00:30:49.233Z,1.22
2019-05-12T00:33:17.951Z,1.05
2019-05-12T00:35:48.105Z,1.20
2019-05-12T00:38:17.531Z,1.10
2019-05-12T00:40:44.865Z,1.00
2019-05-12T00:43:12.450Z,0.85
2019-05-12T00:45:40.084Z,0.85
2019-05-12T00:48:09.041Z,2.40
2019-05-12T00:50:38.217Z,1.37
2019-05-12T00:53:08.618Z,0.78
2019-05-12T00:55:37.810Z,1.47
2019-05-12T00:58:04.528Z,0.70
2019-05-12T01:00:32.437Z,0.88
2019-05-12T01:03:00.021Z,1.12
2019-05-12T01:05:29.401Z,0.80
2019-05-12T01:07:58.287Z,0.75
2019-05-12T01:10:28.580Z,0.68
2019-05-12T01:12:57.900Z,0.60
2019-05-12T01:15:24.977Z,0.70
2019-05-12T01:17:52.564Z,1.00
2019-05-12T01:20:20.177Z,0.80
2019-05-12T01:22:50.370Z,0.70
2019-05-12T01:25:17.695Z,0.72
2019-05-12T01:27:45.266Z,0.57
2019-05-12T01:30:13.197Z,0.50
2019-05-12T01:32:40.781Z,0.55
2019-05-12T01:35:08.387Z,0.60
2019-05-12T01:37:38.279Z,0.47
2019-05-12T01:40:08.935Z,0.60
2019-05-12T01:42:38.030Z,0.68
2019-05-12T01:45:04.808Z,1.02
2019-05-12T01:47:32.432Z,0.50
2019-05-12T01:50:00.103Z,2.72
2019-05-12T01:52:28.535Z,0.90
2019-05-12T01:54:58.809Z,0.55
2019-05-12T01:57:25.468Z,0.53
2019-05-12T01:59:53.052Z,0.60
2019-05-12T02:02:20.668Z,0.60
2019-05-12T02:04:48.398Z,0.60
2019-05-12T02:07:18.090Z,0.60
2019-05-12T02:09:47.988Z,0.68
2019-05-12T02:12:14.740Z,0.80
2019-05-12T02:14:42.639Z,0.78
2019-05-12T02:17:10.258Z,0.75
2019-05-12T02:19:38.526Z,0.72
2019-05-12T02:22:08.281Z,0.90
2019-05-12T02:24:35.395Z,0.45
2019-05-12T02:27:03.008Z,0.57
2019-05-12T02:29:30.600Z,0.78
2019-05-12T02:31:59.047Z,0.65
2019-05-12T02:34:26.800Z,0.70
2019-05-12T02:36:55.508Z,0.53
2019-05-12T02:39:24.914Z,0.95
2019-05-12T02:41:54.240Z,0.78
2019-05-12T02:44:24.748Z,0.72
2019-05-12T02:46:51.134Z,1.17
2019-05-12T02:49:18.720Z,1.10
2019-05-12T02:51:46.466Z,1.10
2019-05-12T02:54:14.438Z,0.90
2019-05-12T02:56:44.886Z,1.32
2019-05-12T02:59:12.624Z,1.00
2019-05-12T03:01:40.245Z,0.98
2019-05-12T03:04:07.837Z,1.10
2019-05-12T03:06:36.269Z,0.90
2019-05-12T03:09:05.951Z,0.95
2019-05-12T03:11:35.448Z,0.78
2019-05-12T03:14:04.109Z,1.95
2019-05-12T03:16:34.761Z,1.17
2019-05-12T03:19:04.558Z,1.10
2019-05-12T03:21:30.267Z,1.32
2019-05-12T03:23:57.873Z,3.87
2019-05-12T03:26:25.457Z,1.10
2019-05-12T03:28:55.574Z,2.62
2019-05-12T03:31:25.367Z,1.30
2019-05-12T03:33:54.087Z,1.37
2019-05-12T03:36:20.803Z,1.00
2019-05-12T03:38:48.429Z,1.75
2019-05-12T03:41:16.030Z,1.07
2019-05-12T03:43:45.115Z,2.62
2019-05-12T03:46:15.166Z,1.80
2019-05-12T03:48:45.193Z,0.93
2019-05-12T03:51:11.218Z,1.47
2019-05-12T03:53:38.840Z,2.87
2019-05-12T03:56:06.419Z,1.00
2019-05-12T03:58:34.881Z,3.35
2019-05-12T04:01:04.584Z,1.30
2019-05-12T04:03:34.544Z,1.20
2019-05-12T04:06:04.450Z,0.93
2019-05-12T04:08:30.993Z,1.62
2019-05-12T04:10:58.598Z,1.42
2019-05-12T04:13:26.724Z,1.37
2019-05-12T04:15:55.673Z,1.80
2019-05-12T04:18:24.682Z,1.40
2019-05-12T04:20:54.476Z,2.87
2019-05-12T04:23:24.495Z,1.20
2019-05-12T04:25:58.017Z,1.40
2019-05-12T04:28:20.486Z,1.35
2019-05-12T04:30:48.069Z,1.67
2019-05-12T04:33:16.189Z,1.15
2019-05-12T04:35:45.115Z,3.27
2019-05-12T04:38:14.987Z,1.42
2019-05-12T04:40:45.069Z,1.45
2019-05-12T04:43:14.320Z,1.15
2019-05-12T04:45:40.734Z,1.70
2019-05-12T04:48:08.363Z,1.50
2019-05-12T04:50:36.484Z,1.67
2019-05-12T04:53:06.019Z,2.37
2019-05-12T04:55:35.519Z,2.20
2019-05-12T04:58:04.437Z,2.08
2019-05-12T05:00:34.851Z,1.60
2019-05-12T05:03:04.782Z,1.70
2019-05-12T05:05:31.085Z,1.75
2019-05-12T05:07:58.676Z,1.30
2019-05-12T05:10:26.284Z,7.83
2019-05-12T05:12:54.339Z,1.62
2019-05-12T05:15:24.740Z,1.98
2019-05-12T05:17:51.293Z,1.90
2019-05-12T05:20:18.906Z,3.08
2019-05-12T05:22:46.804Z,3.70
2019-05-12T05:25:14.614Z,12.50
2019-05-12T05:27:43.782Z,7.00
2019-05-12T05:30:13.702Z,6.42
2019-05-12T05:32:40.666Z,7.45
2019-05-12T05:35:08.280Z,12.13
2019-05-12T05:37:41.204Z,9.58
2019-05-12T05:40:06.097Z,11.05
2019-05-12T05:42:35.639Z,5.00
2019-05-12T05:45:05.077Z,4.95
2019-05-12T05:47:34.156Z,9.05
2019-05-12T05:50:04.597Z,2.52
2019-05-12T05:52:34.237Z,4.25
2019-05-12T05:55:05.902Z,4.12
2019-05-12T05:57:29.927Z,4.35
2019-05-12T05:59:59.601Z,15.00
2019-05-12T06:02:31.855Z,3.25
2019-05-12T06:04:56.522Z,2.50
2019-05-12T06:07:34.819Z,3.00
2019-05-12T06:09:53.795Z,3.85
2019-05-12T06:12:21.373Z,4.05
2019-05-12T06:14:55.216Z,3.40
2019-05-12T06:17:18.629Z,3.75
2019-05-12T06:19:46.258Z,4.00
2019-05-12T06:22:17.121Z,4.90
2019-05-12T06:24:44.155Z,3.45
2019-05-12T06:27:20.307Z,7.95
2019-05-12T06:29:41.041Z,3.30
2019-05-12T06:32:10.849Z,4.33
2019-05-12T06:34:37.956Z,3.52
2019-05-12T06:37:11.848Z,4.05
2019-05-12T06:39:34.907Z,4.12
2019-05-12T06:42:12.558Z,5.53
2019-05-12T06:44:33.497Z,4.17
2019-05-12T06:47:03.562Z,10.05
2019-05-12T06:49:30.645Z,7.33
2019-05-12T06:52:01.831Z,7.45
2019-05-12T06:54:27.779Z,7.22
2019-05-12T06:57:16.545Z,7.33
2019-05-12T06:59:25.629Z,4.83
2019-05-12T07:01:56.155Z,7.90
2019-05-12T07:04:24.076Z,3.30
2019-05-12T07:06:56.040Z,5.62
2019-05-12T07:09:25.182Z,7.08
2019-05-12T07:12:01.808Z,5.70
2019-05-12T07:14:23.262Z,5.70
2019-05-12T07:16:55.286Z,4.97
2019-05-12T07:19:22.747Z,5.33
2019-05-12T07:21:50.765Z,3.25
2019-05-12T07:24:17.084Z,5.05
2019-05-12T07:26:47.952Z,5.42
2019-05-12T07:29:13.985Z,6.75
2019-05-12T07:31:44.324Z,3.37
2019-05-12T07:34:13.649Z,3.75
2019-05-12T07:36:41.320Z,6.60
2019-05-12T07:39:08.908Z,5.53
2019-05-12T07:41:42.271Z,4.45
2019-05-12T07:44:07.328Z,4.55
2019-05-12T07:46:39.712Z,4.17
2019-05-12T07:49:04.182Z,4.70
2019-05-12T07:51:38.385Z,5.83
2019-05-12T07:54:01.017Z,4.45
2019-05-12T07:56:32.602Z,6.37
2019-05-12T07:58:57.856Z,7.92
2019-05-12T08:01:25.468Z,4.85
2019-05-12T08:03:59.325Z,5.67
2019-05-12T08:06:24.328Z,4.95
2019-05-12T08:08:58.106Z,6.25
2019-05-12T08:11:20.793Z,6.40
2019-05-12T08:13:48.382Z,8.90
2019-05-12T08:16:19.543Z,6.40
2019-05-12T08:18:45.229Z,3.50
2019-05-12T08:21:13.985Z,6.58
2019-05-12T08:23:44.259Z,7.78
2019-05-12T08:26:17.910Z,6.05
2019-05-12T08:28:40.768Z,5.35
2019-05-12T08:31:08.395Z,4.47
2019-05-12T08:33:36.277Z,6.05
2019-05-12T08:36:11.276Z,7.45
2019-05-12T08:38:33.711Z,6.92
2019-05-12T08:41:04.098Z,5.90
2019-05-12T08:43:30.824Z,4.50
2019-05-12T08:46:00.186Z,6.60
2019-05-12T08:48:27.673Z,7.20
2019-05-12T08:50:55.252Z,9.95
2019-05-12T08:53:23.607Z,6.33
2019-05-12T08:55:53.883Z,7.40
2019-05-12T08:58:31.402Z,7.83
2019-05-12T09:00:52.048Z,9.50
2019-05-12T09:03:20.470Z,11.40
2019-05-12T09:05:49.252Z,23.55
2019-05-12T09:08:16.864Z,7.97
2019-05-12T09:10:45.238Z,8.95
2019-05-12T09:13:14.449Z,11.15
2019-05-12T09:15:43.818Z,8.90
2019-05-12T09:18:11.617Z,8.10
2019-05-12T09:20:40.120Z,6.62
2019-05-12T09:23:08.591Z,8.53
2019-05-12T09:25:39.368Z,26.33
2019-05-12T09:28:05.439Z,10.98
2019-05-12T09:30:33.611Z,9.33
2019-05-12T09:33:03.940Z,11.88
2019-05-12T09:35:34.853Z,14.58
2019-05-12T09:38:02.885Z,9.28
2019-05-12T09:40:29.580Z,12.33
2019-05-12T09:43:00.191Z,10.20
2019-05-12T09:45:26.440Z,14.75
2019-05-12T09:47:58.767Z,9.95
2019-05-12T09:50:23.421Z,20.75
2019-05-12T09:52:54.989Z,12.33
2019-05-12T09:55:22.087Z,12.75
2019-05-12T09:57:49.522Z,8.58
2019-05-12T10:00:17.997Z,14.15
2019-05-12T10:02:45.719Z,9.70
2019-05-12T10:05:14.395Z,15.72
2019-05-12T10:07:44.362Z,14.90
2019-05-12T10:10:14.001Z,13.10
2019-05-12T10:12:46.167Z,9.83
2019-05-12T10:15:10.336Z,10.18
2019-05-12T10:17:38.317Z,12.73
2019-05-12T10:20:06.079Z,53.33
2019-05-12T10:22:39.577Z,18.62
2019-05-12T10:25:05.991Z,17.70
2019-05-12T10:27:34.521Z,14.40
2019-05-12T10:30:11.892Z,12.82
2019-05-12T10:32:34.181Z,7.95
2019-05-12T10:35:01.913Z,10.60
2019-05-12T10:37:29.603Z,11.75
2019-05-12T10:39:57.217Z,8.80
2019-05-12T10:42:24.821Z,9.88
2019-05-12T10:44:54.507Z,7.50
2019-05-12T10:47:23.807Z,8.05
2019-05-12T10:49:53.518Z,10.05
2019-05-12T10:52:20.430Z,12.40
2019-05-12T10:54:48.039Z,11.85
2019-05-12T10:57:15.635Z,10.70
2019-05-12T10:59:45.226Z,12.18
2019-05-12T11:02:13.926Z,8.10
2019-05-12T11:04:43.914Z,8.63
2019-05-12T11:07:10.849Z,6.58
2019-05-12T11:09:38.765Z,11.20
2019-05-12T11:12:06.676Z,8.03
2019-05-12T11:14:34.367Z,7.80
2019-05-12T11:17:06.887Z,8.83
2019-05-12T11:19:33.578Z,8.28
2019-05-12T11:22:00.421Z,12.05
2019-05-12T11:24:28.044Z,7.83
2019-05-12T11:26:55.685Z,8.63
2019-05-12T11:29:23.651Z,10.98
2019-05-12T11:31:53.734Z,10.50
2019-05-12T11:34:20.998Z,8.55
2019-05-12T11:36:48.973Z,10.30
2019-05-12T11:39:16.591Z,9.38
2019-05-12T11:41:44.448Z,10.00
2019-05-12T11:44:13.234Z,12.68
2019-05-12T11:46:40.859Z,7.70
2019-05-12T11:49:09.627Z,5.60
2019-05-12T11:51:38.063Z,8.58
2019-05-12T11:54:09.115Z,11.45
2019-05-12T11:56:35.228Z,8.25
2019-05-12T11:59:02.844Z,9.58
2019-05-12T12:01:30.440Z,9.35
2019-05-12T12:03:58.052Z,11.12
2019-05-12T12:06:25.697Z,9.50
2019-05-12T12:08:53.791Z,9.65
2019-05-12T12:11:25.578Z,6.90
2019-05-12T12:13:53.405Z,10.93
2019-05-12T12:16:20.479Z,9.98
2019-05-12T12:18:52.071Z,10.40
2019-05-12T12:21:17.645Z,10.70
2019-05-12T12:23:48.820Z,7.85
2019-05-12T12:26:14.889Z,10.68
2019-05-12T12:28:43.525Z,9.55
2019-05-12T12:31:13.203Z,9.83
2019-05-12T12:33:46.716Z,10.43
2019-05-12T12:36:11.996Z,8.83
2019-05-12T12:38:39.940Z,7.58
2019-05-12T12:41:07.844Z,9.85
2019-05-12T12:43:35.744Z,8.20
2019-05-12T12:46:03.365Z,9.05
2019-05-12T12:48:33.178Z,10.78
2019-05-12T12:51:03.774Z,11.45
2019-05-12T12:53:31.383Z,8.03
2019-05-12T12:55:59.054Z,9.40
2019-05-12T12:58:31.146Z,8.35
2019-05-12T13:00:57.095Z,9.33
2019-05-12T13:03:29.466Z,12.47
2019-05-12T13:05:54.332Z,13.32
2019-05-12T13:08:24.493Z,14.13
2019-05-12T13:10:53.929Z,12.90
2019-05-12T13:13:20.432Z,12.78
2019-05-12T13:15:50.582Z,10.80
2019-05-12T13:18:25.744Z,7.35
2019-05-12T13:20:48.640Z,8.73
2019-05-12T13:23:16.224Z,9.78
2019-05-12T13:25:50.077Z,9.30
2019-05-12T13:28:18.834Z,13.30
2019-05-12T13:30:47.115Z,9.60
2019-05-12T13:33:15.110Z,9.68
2019-05-12T13:35:43.403Z,9.68
2019-05-12T13:38:10.790Z,11.28
2019-05-12T13:40:39.438Z,10.88
2019-05-12T13:43:09.155Z,13.70
2019-05-12T13:45:36.366Z,9.53
2019-05-12T13:48:04.047Z,8.18
2019-05-12T13:50:31.641Z,9.75
2019-05-12T13:53:01.034Z,9.70
2019-05-12T13:55:28.773Z,7.08
2019-05-12T13:57:57.752Z,9.55
2019-05-12T14:00:25.623Z,9.00
2019-05-12T14:02:55.482Z,8.38
2019-05-12T14:05:24.148Z,7.33
2019-05-12T14:07:55.775Z,8.88
2019-05-12T14:10:21.445Z,8.78
2019-05-12T14:12:49.060Z,11.05
2019-05-12T14:15:16.649Z,9.43
2019-05-12T14:17:44.276Z,7.45
2019-05-12T14:20:15.779Z,9.90
2019-05-12T14:22:41.857Z,8.90
2019-05-12T14:25:10.081Z,7.37
2019-05-12T14:27:37.712Z,7.70
2019-05-12T14:30:09.896Z,8.98
2019-05-12T14:32:34.688Z,6.75
2019-05-12T14:35:04.320Z,6.20
2019-05-12T14:37:33.538Z,4.90
2019-05-12T14:40:00.938Z,6.08
2019-05-12T14:42:34.751Z,15.25
2019-05-12T14:44:57.849Z,5.17
2019-05-12T14:47:29.891Z,5.95
2019-05-12T14:49:54.720Z,8.55
2019-05-12T14:52:22.596Z,9.73
2019-05-12T14:54:50.225Z,6.05
2019-05-12T14:57:17.840Z,7.53
2019-05-12T14:59:45.716Z,6.42
2019-05-12T15:02:13.656Z,6.17
2019-05-12T15:04:43.416Z,9.33
2019-05-12T15:07:10.500Z,8.18
2019-05-12T15:09:38.081Z,5.60
2019-05-12T15:12:05.721Z,7.25
2019-05-12T15:14:37.813Z,12.68
2019-05-12T15:17:03.735Z,10.35
2019-05-12T15:19:33.499Z,7.08
2019-05-12T15:22:09.759Z,9.03
2019-05-12T15:24:33.621Z,7.55
2019-05-12T15:27:01.064Z,8.93
2019-05-12T15:29:28.668Z,11.20
2019-05-12T15:31:56.892Z,13.65
2019-05-12T15:34:25.366Z,5.97
2019-05-12T15:36:56.200Z,8.05
2019-05-12T15:39:23.447Z,9.93
2019-05-12T15:41:56.506Z,8.28
2019-05-12T15:44:23.165Z,6.47
2019-05-12T15:46:53.579Z,7.30
2019-05-12T15:49:21.210Z,7.17
2019-05-12T15:51:53.996Z,8.55
2019-05-12T15:54:18.129Z,7.10
2019-05-12T15:56:45.887Z,10.23
2019-05-12T15:59:14.602Z,7.65
2019-05-12T16:01:44.659Z,7.45
2019-05-12T16:04:15.175Z,6.75
2019-05-12T16:06:44.765Z,11.40
2019-05-12T16:09:13.095Z,6.85
2019-05-12T16:11:40.004Z,10.78
2019-05-12T16:14:07.908Z,7.55
2019-05-12T16:16:42.357Z,6.05
2019-05-12T16:19:04.894Z,8.08
2019-05-12T16:21:32.480Z,7.72
2019-05-12T16:24:02.955Z,8.90
2019-05-12T16:26:29.617Z,8.33
2019-05-12T16:29:05.250Z,7.37
2019-05-12T16:31:26.505Z,8.53
2019-05-12T16:34:01.193Z,7.28
2019-05-12T16:36:23.369Z,7.53
2019-05-12T16:38:58.481Z,6.70
2019-05-12T16:41:26.410Z,7.67
2019-05-12T16:43:49.549Z,13.30
2019-05-12T16:46:17.424Z,9.55
2019-05-12T16:48:48.357Z,6.87
2019-05-12T16:51:14.269Z,8.08
2019-05-12T16:53:43.608Z,8.90
2019-05-12T16:56:11.320Z,8.05
2019-05-12T16:58:38.904Z,6.58
2019-05-12T17:01:06.556Z,8.93
2019-05-12T17:03:34.343Z,7.12
2019-05-12T17:06:03.476Z,8.90
2019-05-12T17:08:31.324Z,7.33
2019-05-12T17:11:21.797Z,8.58
2019-05-12T17:13:28.180Z,9.55
2019-05-12T17:16:00.035Z,10.20
2019-05-12T17:18:25.283Z,8.73
2019-05-12T17:20:54.571Z,6.95
2019-05-12T17:23:24.400Z,5.37
2019-05-12T17:25:51.543Z,9.13
2019-05-12T17:28:19.129Z,6.92
2019-05-12T17:30:46.739Z,6.42
2019-05-12T17:33:22.372Z,5.90
2019-05-12T17:35:44.677Z,10.15
2019-05-12T17:38:19.753Z,9.08
2019-05-12T17:40:44.015Z,8.33
2019-05-12T17:43:11.941Z,9.10
2019-05-12T17:45:40.491Z,8.23
2019-05-12T17:48:17.493Z,10.85
2019-05-12T17:51:00.672Z,10.15
2019-05-12T17:53:30.408Z,9.13
2019-05-12T17:56:04.613Z,8.83
2019-05-12T17:58:35.341Z,10.13
2019-05-12T18:01:14.420Z,11.08
2019-05-12T18:03:45.828Z,13.48
2019-05-12T18:06:14.019Z,10.23
2019-05-12T18:08:41.213Z,11.97
2019-05-12T18:11:11.461Z,10.48
2019-05-12T18:13:39.954Z,13.83
2019-05-12T18:16:11.682Z,12.23
2019-05-12T18:18:38.130Z,12.40
2019-05-12T18:21:06.381Z,10.32
2019-05-12T18:23:34.574Z,9.73
2019-05-12T18:26:11.349Z,13.10
2019-05-12T18:28:33.466Z,13.50
2019-05-12T18:31:00.829Z,12.65
2019-05-12T18:33:33.910Z,13.48
2019-05-12T18:36:03.908Z,13.10
2019-05-12T18:38:32.027Z,11.80
2019-05-12T18:41:00.537Z,12.60
2019-05-12T18:43:28.129Z,13.18
2019-05-12T18:46:04.792Z,13.90
2019-05-12T18:48:25.422Z,12.88
2019-05-12T18:50:54.688Z,13.80
2019-05-12T18:53:27.895Z,15.48
2019-05-12T18:55:53.945Z,13.00
2019-05-12T18:58:31.122Z,13.80
2019-05-12T19:00:56.913Z,10.75
2019-05-12T19:03:25.519Z,14.05
2019-05-12T19:05:57.821Z,9.15
2019-05-12T19:08:23.766Z,10.10
2019-05-12T19:10:51.880Z,13.53
2019-05-12T19:13:19.828Z,10.38
2019-05-12T19:15:47.487Z,11.97
2019-05-12T19:18:18.582Z,15.78
2019-05-12T19:20:48.280Z,13.15
2019-05-12T19:23:17.472Z,15.20
2019-05-12T19:25:45.871Z,16.30
2019-05-12T19:28:14.357Z,11.53
2019-05-12T19:30:43.767Z,11.05
2019-05-12T19:33:13.661Z,12.20
2019-05-12T19:35:40.901Z,13.83
2019-05-12T19:38:08.744Z,12.15
2019-05-12T19:40:36.360Z,10.98
2019-05-12T19:43:08.077Z,12.93
2019-05-12T19:45:33.801Z,11.30
2019-05-12T19:48:24.853Z,13.60
2019-05-12T19:50:52.775Z,11.68
2019-05-12T19:53:23.910Z,15.00
2019-05-12T19:55:51.638Z,13.65
2019-05-12T19:58:19.224Z,13.45
2019-05-12T20:00:50.097Z,11.20
2019-05-12T20:03:17.826Z,13.98
2019-05-12T20:05:53.844Z,12.80
2019-05-12T21:01:33.760Z,12.78
2019-05-12T21:04:03.639Z,15.05
2019-05-12T21:06:34.332Z,14.15
2019-05-12T21:09:00.470Z,11.75
2019-05-12T21:11:28.195Z,15.53
2019-05-12T21:14:09.842Z,15.38
2019-05-12T21:16:34.487Z,13.72
2019-05-12T21:19:09.831Z,13.08
2019-05-12T21:21:34.336Z,13.38
2019-05-12T21:23:59.509Z,14.33
2019-05-12T21:26:32.104Z,13.15
2019-05-12T21:29:00.937Z,14.07
2019-05-12T21:31:30.790Z,16.27
2019-05-12T21:33:58.854Z,15.70
2019-05-12T21:36:37.751Z,12.63
2019-05-12T21:39:10.370Z,14.45
2019-05-12T21:41:40.708Z,14.07
2019-05-12T21:44:10.866Z,15.13
2019-05-12T21:46:38.194Z,18.75
2019-05-12T21:49:10.465Z,17.20
2019-05-12T21:51:34.188Z,14.83
2019-05-12T21:54:04.012Z,18.37
2019-05-12T21:56:35.794Z,14.20
2019-05-12T21:59:00.437Z,15.38
2019-05-12T22:01:28.028Z,15.75
2019-05-12T22:04:02.014Z,17.73
2019-05-12T22:06:25.189Z,16.05
2019-05-12T22:09:00.934Z,18.98
2019-05-12T22:11:23.942Z,14.87
2019-05-12T22:13:56.042Z,12.33
2019-05-12T22:16:20.496Z,14.18
2019-05-12T22:18:56.108Z,16.32
2019-05-12T22:21:17.948Z,17.23
2019-05-12T22:23:51.248Z,22.10
2019-05-12T22:26:15.149Z,16.75
2019-05-12T22:28:46.622Z,15.03
2019-05-12T22:31:13.715Z,17.05
2019-05-12T22:33:51.636Z,17.55
2019-05-12T22:36:20.722Z,16.70
2019-05-12T22:38:40.133Z,16.48
2019-05-12T22:41:07.720Z,19.25
2019-05-12T22:43:40.964Z,18.32
2019-05-12T22:46:04.685Z,19.57
2019-05-12T22:48:37.321Z,15.25
2019-05-12T22:51:06.176Z,16.42
2019-05-12T22:53:30.800Z,17.77
2019-05-12T22:56:02.918Z,17.80
2019-05-12T22:58:27.955Z,17.32
2019-05-12T23:01:00.715Z,15.85
2019-05-12T23:03:25.078Z,15.65
2019-05-12T23:05:59.783Z,15.63
2019-05-12T23:08:24.511Z,17.20
2019-05-12T23:10:53.392Z,21.57
2019-05-12T23:13:20.424Z,16.50
2019-05-12T23:15:49.501Z,16.37
2019-05-12T23:18:19.512Z,16.52
2019-05-12T23:20:46.488Z,14.43
2019-05-12T23:23:15.407Z,17.20
2019-05-12T23:25:44.072Z,20.12
2019-05-12T23:28:11.821Z,21.52
2019-05-12T23:30:43.650Z,15.38
2019-05-12T23:33:08.668Z,14.30
2019-05-12T23:35:39.343Z,14.47
2019-05-12T23:38:10.398Z,12.47
2019-05-12T23:40:34.764Z,15.28
2019-05-12T23:43:04.024Z,13.53
2019-05-12T23:45:34.086Z,14.43
2019-05-12T23:48:03.472Z,17.45
2019-05-12T23:50:30.328Z,15.65
2019-05-12T23:52:57.914Z,16.67
2019-05-12T23:55:25.861Z,15.13
2019-05-12T23:57:53.743Z,17.00
